createdAt,value
2022-09-18T16:58:17.689Z,14.30
2022-09-18T21:02:18.529Z,13.50
2022-09-18T21:04:52.357Z,10.70
2022-09-18T21:07:22.320Z,10.60
2022-09-18T21:09:54.473Z,10.60
2022-09-18T21:12:27.624Z,10.50
2022-09-18T21:14:57.616Z,10.50
2022-09-18T21:17:30.621Z,10.50
2022-09-18T21:20:01.593Z,10.40
2022-09-18T21:22:31.957Z,10.40
2022-09-18T21:25:01.639Z,10.50
2022-09-18T21:27:31.233Z,10.50
2022-09-18T21:30:00.813Z,10.50
2022-09-18T21:32:33.033Z,10.50
2022-09-18T21:35:04.017Z,10.50
2022-09-18T21:37:33.595Z,10.50
2022-09-18T21:40:04.264Z,10.50
2022-09-18T21:42:33.867Z,10.50
2022-09-18T21:45:03.714Z,10.50
2022-09-18T21:47:37.172Z,10.50
2022-09-18T21:50:07.166Z,10.50
2022-09-18T21:52:36.717Z,10.50
2022-09-18T21:55:06.649Z,10.50
2022-09-18T21:57:36.909Z,10.50
2022-09-18T22:00:07.275Z,10.50
2022-09-18T22:02:40.784Z,10.50
2022-09-18T22:05:12.156Z,10.50
2022-09-18T22:07:43.253Z,10.50
2022-09-18T22:10:14.774Z,10.50
2022-09-18T22:12:44.401Z,10.50
2022-09-18T22:15:14.229Z,10.50
2022-09-18T22:17:46.439Z,10.40
2022-09-18T22:20:17.713Z,10.40
2022-09-18T22:22:47.375Z,10.50
2022-09-18T22:25:17.065Z,10.50
2022-09-18T22:27:46.761Z,10.50
2022-09-18T22:30:16.476Z,10.50
2022-09-18T22:32:49.374Z,10.50
2022-09-18T22:35:18.953Z,10.50
2022-09-18T22:37:48.514Z,10.50
2022-09-18T22:40:18.482Z,10.50
2022-09-18T22:42:48.040Z,10.40
2022-09-18T22:45:18.085Z,10.40
2022-09-18T22:47:50.288Z,10.30
2022-09-18T22:50:20.307Z,10.30
2022-09-18T22:52:49.901Z,10.30
2022-09-18T22:55:19.603Z,10.30
2022-09-18T22:57:49.243Z,10.30
2022-09-18T23:00:18.952Z,10.30
2022-09-18T23:02:52.103Z,10.20
2022-09-18T23:05:21.688Z,10.10
2022-09-18T23:07:53.291Z,10.10
2022-09-18T23:10:23.069Z,10.10
2022-09-18T23:12:52.701Z,10.10
2022-09-18T23:15:22.419Z,10.10
2022-09-18T23:17:54.623Z,9.90
2022-09-18T23:20:24.286Z,9.90
2022-09-18T23:22:53.869Z,9.80
2022-09-18T23:25:23.555Z,9.80
2022-09-18T23:27:55.470Z,9.70
2022-09-18T23:30:25.341Z,9.70
2022-09-18T23:32:57.485Z,9.50
2022-09-18T23:35:27.094Z,9.50
2022-09-18T23:37:57.591Z,9.50
2022-09-18T23:40:27.658Z,9.50
2022-09-18T23:42:57.428Z,9.60
2022-09-18T23:45:27.046Z,9.50
2022-09-18T23:47:59.213Z,9.50
2022-09-18T23:50:30.722Z,9.40
2022-09-18T23:53:00.297Z,9.50
2022-09-18T23:55:30.049Z,9.30
2022-09-18T23:57:59.645Z,9.20
